Time;durP1;ratioP1;P1;durP2;ratioP2;P2;SDS_P1;SDS_P2;PMS_P1;PMS_P2;Temp;Humidity;BMP_temperature;BMP_pressure;BME280_temperature;BME280_humidity;BME280_pressure;Samples;Min_cycle;Max_cycle;Signal;HPM_P1;HPM_P2
2021/05/22 00:01:11;;;;;;;23.05;3.35;;;11.10;99.90;;;;;;5080587;28;20198;-72
2021/05/22 00:03:37;;;;;;;28.40;3.63;;;11.10;99.90;;;;;;5082708;28;20213;-72
2021/05/22 00:06:03;;;;;;;28.55;3.72;;;11.00;99.90;;;;;;5087115;28;20216;-72
2021/05/22 00:08:30;;;;;;;29.83;4.35;;;11.00;99.90;;;;;;5084992;28;20233;-71
2021/05/22 00:10:57;;;;;;;32.08;4.18;;;11.00;99.90;;;;;;5084491;28;20673;-72
2021/05/22 00:13:24;;;;;;;42.28;4.95;;;10.90;99.90;;;;;;5085520;28;20226;-71
2021/05/22 00:15:50;;;;;;;29.83;3.72;;;10.90;99.90;;;;;;5082803;28;20285;-72
2021/05/22 00:18:17;;;;;;;36.30;4.50;;;10.90;99.90;;;;;;5069089;28;20209;-71
2021/05/22 00:20:43;;;;;;;36.35;4.38;;;10.90;99.90;;;;;;5085217;28;20618;-72
2021/05/22 00:23:10;;;;;;;31.13;4.22;;;10.90;99.90;;;;;;5083425;28;20280;-72
2021/05/22 00:25:37;;;;;;;28.05;3.80;;;10.90;99.90;;;;;;5084175;28;20201;-72
2021/05/22 00:28:04;;;;;;;22.17;3.53;;;11.00;99.90;;;;;;5085193;28;20214;-72
2021/05/22 00:30:31;;;;;;;23.80;3.70;;;10.90;99.90;;;;;;5098849;28;20222;-72
2021/05/22 00:32:57;;;;;;;32.53;4.43;;;10.90;99.90;;;;;;5085002;28;20666;-71
2021/05/22 00:35:24;;;;;;;19.95;3.25;;;10.90;99.90;;;;;;5086273;28;20216;-72
2021/05/22 00:37:50;;;;;;;18.95;3.47;;;10.90;99.90;;;;;;5084296;28;20680;-74
2021/05/22 00:40:17;;;;;;;27.20;3.40;;;10.90;99.90;;;;;;5100344;28;20241;-71
2021/05/22 00:42:44;;;;;;;28.40;3.75;;;10.90;99.90;;;;;;5088049;28;20247;-71
2021/05/22 00:45:15;;;;;;;30.38;4.07;;;10.90;99.90;;;;;;5086811;28;20213;-72
2021/05/22 00:47:43;;;;;;;39.25;4.07;;;10.90;99.90;;;;;;5087495;28;20190;-72
2021/05/22 00:50:12;;;;;;;36.42;3.95;;;10.90;99.90;;;;;;5084854;28;20608;-70
2021/05/22 00:52:38;;;;;;;35.90;3.70;;;10.90;99.90;;;;;;5090024;28;20201;-71
2021/05/22 00:55:06;;;;;;;33.25;4.35;;;10.90;99.90;;;;;;5070530;28;20206;-72
2021/05/22 00:57:33;;;;;;;24.38;3.72;;;10.80;99.90;;;;;;5089375;28;20202;-71
2021/05/22 01:00:00;;;;;;;34.13;3.70;;;10.80;99.90;;;;;;5084399;28;20213;-70
2021/05/22 01:02:27;;;;;;;38.38;4.03;;;10.80;99.90;;;;;;5085171;28;20202;-71
2021/05/22 01:04:56;;;;;;;26.50;3.70;;;10.80;99.90;;;;;;5086111;28;20210;-72
2021/05/22 01:07:23;;;;;;;38.95;4.72;;;10.70;99.90;;;;;;5088407;28;20220;-71
2021/05/22 01:09:52;;;;;;;41.67;5.20;;;10.70;99.90;;;;;;5086910;28;20602;-70
2021/05/22 01:12:21;;;;;;;45.17;5.10;;;10.70;99.90;;;;;;5087852;28;20687;-71
2021/05/22 01:14:51;;;;;;;30.52;4.70;;;10.70;99.90;;;;;;5084385;28;20736;-71
2021/05/22 01:17:19;;;;;;;38.00;4.70;;;10.70;99.90;;;;;;5085892;28;20213;-71
2021/05/22 01:19:54;;;;;;;40.35;5.43;;;10.70;99.90;;;;;;5088305;28;20225;-71
2021/05/22 01:22:21;;;;;;;48.60;5.95;;;10.60;99.90;;;;;;5102610;28;20201;-72
2021/05/22 01:24:51;;;;;;;43.83;5.38;;;10.60;99.90;;;;;;5087636;28;20198;-72
2021/05/22 01:27:18;;;;;;;52.65;5.45;;;10.60;99.90;;;;;;5086961;28;20205;-70
2021/05/22 01:29:45;;;;;;;41.92;5.25;;;10.60;99.90;;;;;;5084156;28;20206;-72
2021/05/22 01:32:12;;;;;;;49.83;4.97;;;10.60;99.90;;;;;;5086779;28;21292;-72
2021/05/22 01:34:39;;;;;;;43.25;5.28;;;10.60;99.90;;;;;;5087210;28;20652;-72
2021/05/22 01:37:06;;;;;;;41.58;5.22;;;10.60;99.90;;;;;;5088926;28;20198;-72
2021/05/22 01:39:32;;;;;;;45.35;5.05;;;10.60;99.90;;;;;;5085572;28;20596;-72
2021/05/22 01:41:59;;;;;;;48.42;5.55;;;10.60;99.90;;;;;;5086825;28;20194;-71
2021/05/22 01:44:28;;;;;;;42.72;5.55;;;10.60;99.90;;;;;;5082138;28;20201;-72
2021/05/22 01:46:56;;;;;;;43.67;5.97;;;10.60;99.90;;;;;;5086155;28;20604;-71
2021/05/22 01:49:26;;;;;;;37.08;5.18;;;10.60;99.90;;;;;;5084829;28;20745;-73
2021/05/22 01:51:54;;;;;;;41.97;5.18;;;10.60;99.90;;;;;;5085319;28;20560;-71
2021/05/22 01:54:21;;;;;;;37.55;4.88;;;10.50;99.90;;;;;;5086002;28;20575;-71
2021/05/22 01:56:48;;;;;;;37.63;4.50;;;10.60;99.90;;;;;;5087707;28;20202;-72
2021/05/22 01:59:15;;;;;;;38.28;4.93;;;10.50;99.90;;;;;;5067354;28;20704;-72
2021/05/22 02:01:43;;;;;;;38.28;4.97;;;10.50;99.90;;;;;;5083466;28;20206;-71
2021/05/22 02:04:09;;;;;;;33.40;4.97;;;10.50;99.90;;;;;;5102136;28;20206;-72
2021/05/22 02:06:41;;;;;;;31.17;4.18;;;10.60;99.90;;;;;;5086178;28;20650;-71
2021/05/22 02:09:08;;;;;;;26.35;4.20;;;10.50;99.90;;;;;;5084709;28;20216;-72
2021/05/22 02:11:38;;;;;;;31.27;4.25;;;10.50;99.90;;;;;;5085446;28;20208;-74
2021/05/22 02:14:08;;;;;;;29.25;4.07;;;10.50;99.90;;;;;;5086440;28;20564;-71
2021/05/22 02:16:38;;;;;;;31.00;4.07;;;10.50;99.90;;;;;;5086911;28;20193;-71
2021/05/22 02:19:09;;;;;;;24.90;3.78;;;10.50;99.90;;;;;;5069445;28;20282;-71
2021/05/22 02:21:39;;;;;;;24.33;4.07;;;10.50;99.90;;;;;;5082721;28;20249;-71
2021/05/22 02:24:06;;;;;;;23.08;4.07;;;10.50;99.90;;;;;;5084961;28;20204;-72
2021/05/22 02:26:32;;;;;;;24.38;4.22;;;10.50;99.90;;;;;;5085975;28;20293;-73
2021/05/22 02:29:02;;;;;;;20.67;3.90;;;10.50;99.90;;;;;;5086958;28;20205;-73
2021/05/22 02:31:31;;;;;;;35.70;5.10;;;10.50;99.90;;;;;;5084973;28;20263;-72
2021/05/22 02:34:02;;;;;;;29.77;4.50;;;10.50;99.90;;;;;;5086480;28;20212;-73
2021/05/22 02:36:29;;;;;;;40.97;5.35;;;10.40;99.90;;;;;;5070567;28;20229;-74
2021/05/22 02:38:58;;;;;;;49.38;5.32;;;10.40;99.90;;;;;;5083088;28;20689;-73
2021/05/22 02:41:25;;;;;;;41.58;4.28;;;10.40;99.90;;;;;;5086579;28;20205;-73
2021/05/22 02:43:56;;;;;;;45.60;5.55;;;10.40;99.90;;;;;;5083128;28;20205;-73
2021/05/22 02:46:23;;;;;;;44.00;5.47;;;10.40;99.90;;;;;;5085807;28;20213;-72
2021/05/22 02:48:52;;;;;;;47.40;4.93;;;10.40;99.90;;;;;;5083212;28;20263;-72
2021/05/22 02:51:22;;;;;;;49.20;5.82;;;10.40;99.90;;;;;;5084384;28;20247;-72
2021/05/22 02:53:51;;;;;;;37.92;5.13;;;10.50;99.90;;;;;;5084345;28;20243;-72
2021/05/22 02:56:19;;;;;;;38.85;5.13;;;10.40;99.90;;;;;;5087457;28;20198;-73
2021/05/22 02:58:47;;;;;;;60.60;6.20;;;10.40;99.90;;;;;;5084965;28;21256;-74
2021/05/22 03:01:13;;;;;;;66.90;7.50;;;10.50;99.90;;;;;;5084561;28;20206;-73
2021/05/22 03:03:40;;;;;;;56.03;6.15;;;10.40;99.90;;;;;;5083747;28;20200;-73
2021/05/22 03:06:07;;;;;;;63.10;5.80;;;10.40;99.90;;;;;;5082682;28;20218;-75
2021/05/22 03:08:42;;;;;;;50.00;6.43;;;10.40;99.90;;;;;;5084633;28;20206;-73
2021/05/22 03:11:10;;;;;;;48.17;5.85;;;10.40;99.90;;;;;;5083103;28;20630;-74
2021/05/22 03:13:36;;;;;;;56.50;6.03;;;10.40;99.90;;;;;;5086450;28;20554;-73
2021/05/22 03:16:03;;;;;;;56.95;6.75;;;10.40;99.90;;;;;;5079393;28;20198;-74
2021/05/22 03:18:29;;;;;;;36.85;4.85;;;10.40;99.90;;;;;;5082311;28;20540;-73
2021/05/22 03:20:56;;;;;;;43.85;4.97;;;10.40;99.90;;;;;;5069807;28;20198;-73
2021/05/22 03:23:22;;;;;;;50.03;6.30;;;10.40;99.90;;;;;;5084133;28;20259;-73
2021/05/22 03:25:49;;;;;;;41.75;5.15;;;10.40;99.90;;;;;;5068313;28;20212;-74
2021/05/22 03:28:17;;;;;;;49.67;5.50;;;10.30;99.90;;;;;;5084911;28;21166;-74
2021/05/22 03:30:43;;;;;;;44.20;5.80;;;10.30;99.90;;;;;;5083793;28;20212;-75
2021/05/22 03:33:09;;;;;;;49.75;5.78;;;10.30;99.90;;;;;;5082505;28;20302;-73
2021/05/22 03:35:36;;;;;;;50.38;6.13;;;10.40;99.90;;;;;;5084011;28;20573;-73
2021/05/22 03:38:02;;;;;;;53.28;6.38;;;10.30;99.90;;;;;;5085836;28;20201;-72
2021/05/22 03:40:29;;;;;;;54.63;6.32;;;10.30;99.90;;;;;;5084553;28;20275;-72
2021/05/22 03:42:55;;;;;;;46.30;5.97;;;10.40;99.90;;;;;;5085012;28;20221;-73
2021/05/22 03:45:23;;;;;;;58.42;6.53;;;10.40;99.90;;;;;;5083003;28;20217;-72
2021/05/22 03:47:49;;;;;;;57.65;6.53;;;10.40;99.90;;;;;;5083427;28;20201;-73
2021/05/22 03:50:16;;;;;;;51.70;6.32;;;10.40;99.90;;;;;;5084470;28;20208;-73
2021/05/22 03:52:42;;;;;;;53.47;6.30;;;10.40;99.90;;;;;;5067163;28;20194;-72
2021/05/22 03:55:11;;;;;;;40.97;5.65;;;10.40;99.90;;;;;;5083214;28;20204;-72
2021/05/22 03:57:37;;;;;;;48.83;6.22;;;10.50;99.90;;;;;;5082911;28;20266;-73
2021/05/22 04:00:05;;;;;;;52.08;6.93;;;10.40;99.90;;;;;;5082213;28;20214;-71
2021/05/22 04:02:33;;;;;;;52.08;6.10;;;10.50;99.90;;;;;;5085080;28;20259;-72
2021/05/22 04:05:00;;;;;;;43.72;6.15;;;10.50;99.90;;;;;;5082144;28;20211;-72
2021/05/22 04:07:26;;;;;;;48.60;6.03;;;10.50;99.90;;;;;;5085424;28;20206;-72
2021/05/22 04:09:53;;;;;;;51.58;6.88;;;10.50;99.90;;;;;;5080792;28;20189;-74
2021/05/22 04:12:19;;;;;;;48.85;6.43;;;10.50;99.90;;;;;;5081258;28;20214;-74
2021/05/22 04:14:46;;;;;;;47.00;7.28;;;10.50;99.90;;;;;;5082471;28;20198;-74
2021/05/22 04:17:12;;;;;;;52.78;6.60;;;10.50;99.90;;;;;;5086701;28;20606;-75
2021/05/22 04:19:40;;;;;;;55.05;6.88;;;10.50;99.90;;;;;;5088087;28;20370;-73
2021/05/22 04:22:06;;;;;;;48.80;5.85;;;10.50;99.90;;;;;;5087987;28;20297;-74
2021/05/22 04:24:33;;;;;;;61.58;7.32;;;10.50;99.90;;;;;;5085333;28;20206;-74
2021/05/22 04:26:59;;;;;;;51.00;6.68;;;10.50;99.90;;;;;;5087525;28;20287;-73
2021/05/22 04:29:26;;;;;;;35.92;5.78;;;10.50;99.90;;;;;;5081312;28;20198;-74
2021/05/22 04:31:52;;;;;;;47.67;5.90;;;10.50;99.90;;;;;;5085845;28;20193;-74
2021/05/22 04:34:18;;;;;;;37.83;5.75;;;10.50;99.90;;;;;;5068802;28;20202;-74
2021/05/22 04:36:46;;;;;;;48.60;6.35;;;10.50;99.90;;;;;;5087691;28;20244;-72
2021/05/22 04:39:12;;;;;;;48.30;6.25;;;10.50;99.90;;;;;;5083306;28;20271;-72
2021/05/22 04:41:39;;;;;;;42.65;4.95;;;10.50;99.90;;;;;;5084920;28;20201;-72
2021/05/22 04:44:05;;;;;;;52.38;5.63;;;10.50;99.90;;;;;;5083752;28;22801;-71
2021/05/22 04:46:32;;;;;;;44.20;5.50;;;10.50;99.90;;;;;;5085684;28;20250;-71
2021/05/22 04:48:59;;;;;;;40.65;5.32;;;10.50;99.90;;;;;;5082512;28;20190;-72
2021/05/22 04:51:26;;;;;;;36.53;5.50;;;10.50;99.90;;;;;;5083943;28;20306;-72
2021/05/22 04:54:01;;;;;;;47.60;5.70;;;10.50;99.90;;;;;;5084719;28;20225;-72
2021/05/22 04:56:28;;;;;;;41.75;6.35;;;10.50;99.90;;;;;;5086171;28;20283;-72
2021/05/22 04:58:54;;;;;;;35.20;5.32;;;10.50;99.90;;;;;;5085443;28;20636;-71
2021/05/22 05:01:20;;;;;;;37.15;5.60;;;10.50;99.90;;;;;;5066536;28;20206;-74
2021/05/22 05:03:47;;;;;;;42.92;5.75;;;10.50;99.90;;;;;;5087731;28;20198;-74
2021/05/22 05:06:13;;;;;;;41.03;5.70;;;10.50;99.90;;;;;;5067677;28;20642;-72
2021/05/22 05:08:40;;;;;;;40.17;5.32;;;10.50;99.90;;;;;;5083901;28;20193;-73
2021/05/22 05:11:07;;;;;;;33.20;4.82;;;10.60;99.90;;;;;;5088541;28;20281;-74
2021/05/22 05:13:34;;;;;;;38.85;5.35;;;10.60;99.90;;;;;;5085647;28;20202;-73
2021/05/22 05:16:00;;;;;;;27.40;4.78;;;10.60;99.90;;;;;;5085739;28;20193;-73
2021/05/22 05:18:27;;;;;;;34.45;5.53;;;10.60;99.90;;;;;;5081255;28;20202;-74
2021/05/22 05:20:53;;;;;;;32.58;5.13;;;10.60;99.90;;;;;;5086148;28;20220;-72
2021/05/22 05:23:21;;;;;;;37.83;5.15;;;10.60;99.90;;;;;;5084439;28;20210;-72
2021/05/22 05:25:47;;;;;;;35.22;4.63;;;10.50;99.90;;;;;;5080655;28;20198;-70
2021/05/22 05:28:14;;;;;;;29.08;5.22;;;10.50;99.90;;;;;;5067123;28;20208;-71
2021/05/22 05:30:40;;;;;;;31.38;4.75;;;10.60;99.90;;;;;;5085027;28;20202;-73
2021/05/22 05:33:07;;;;;;;28.58;4.88;;;10.60;99.90;;;;;;5083315;28;20204;-72
2021/05/22 05:35:33;;;;;;;25.80;5.25;;;10.60;99.90;;;;;;5084885;28;20664;-70
2021/05/22 05:38:00;;;;;;;30.95;5.45;;;10.60;99.90;;;;;;5086843;28;20206;-71
2021/05/22 05:40:26;;;;;;;31.98;4.65;;;10.60;99.90;;;;;;5086433;28;20221;-72
2021/05/22 05:42:52;;;;;;;35.45;5.50;;;10.60;99.90;;;;;;5103162;28;20204;-72
2021/05/22 05:45:20;;;;;;;35.60;5.03;;;10.60;99.90;;;;;;5085280;28;20677;-72
2021/05/22 05:47:47;;;;;;;35.08;4.78;;;10.60;99.90;;;;;;5086566;28;20571;-70
2021/05/22 05:50:13;;;;;;;29.98;4.63;;;10.60;99.90;;;;;;5085614;28;20243;-71
2021/05/22 05:52:39;;;;;;;35.10;5.18;;;10.60;99.90;;;;;;5086463;28;20560;-70
2021/05/22 05:55:07;;;;;;;34.17;4.95;;;10.60;99.90;;;;;;5068199;28;20218;-72
2021/05/22 05:57:33;;;;;;;34.17;4.80;;;10.60;99.90;;;;;;5085134;28;20653;-71
2021/05/22 06:00:03;;;;;;;37.42;5.25;;;10.70;99.90;;;;;;5083322;28;20222;-73
2021/05/22 06:02:33;;;;;;;31.27;4.78;;;10.70;99.90;;;;;;5087485;28;20197;-72
2021/05/22 06:04:59;;;;;;;26.85;4.70;;;10.70;99.90;;;;;;5083053;28;20210;-72
2021/05/22 06:07:26;;;;;;;34.20;5.13;;;10.70;99.90;;;;;;5083621;28;20202;-72
2021/05/22 06:09:52;;;;;;;35.93;6.10;;;10.70;99.90;;;;;;5081938;28;20417;-72
2021/05/22 06:12:18;;;;;;;31.27;5.53;;;11.00;99.90;;;;;;5086103;28;20535;-71
2021/05/22 06:14:49;;;;;;;45.30;5.95;;;11.20;99.90;;;;;;5083003;28;20443;-71
2021/05/22 06:17:16;;;;;;;31.60;4.82;;;11.40;99.90;;;;;;5085374;28;20193;-71
2021/05/22 06:19:43;;;;;;;34.13;5.30;;;11.30;99.90;;;;;;5068321;28;20425;-73
2021/05/22 06:22:09;;;;;;;33.23;5.37;;;11.30;99.90;;;;;;5076016;28;20806;-69
2021/05/22 06:24:36;;;;;;;37.10;5.70;;;11.50;99.90;;;;;;5083060;28;20426;-70
2021/05/22 06:27:02;;;;;;;37.47;5.53;;;11.60;99.90;;;;;;5066874;28;20414;-72
2021/05/22 06:29:28;;;;;;;35.58;5.30;;;11.60;99.90;;;;;;5086084;28;20873;-81
2021/05/22 06:31:55;;;;;;;34.17;5.30;;;11.70;99.90;;;;;;5066593;28;20422;-78
2021/05/22 06:34:21;;;;;;;45.47;6.30;;;11.70;99.90;;;;;;5084937;28;20974;-76
2021/05/22 06:36:49;;;;;;;34.60;5.88;;;11.70;99.90;;;;;;5087678;28;20433;-75
2021/05/22 06:39:16;;;;;;;37.35;5.25;;;11.80;99.90;;;;;;5081193;28;20414;-76
2021/05/22 06:41:42;;;;;;;37.55;5.65;;;11.80;99.90;;;;;;5100660;28;20438;-74
2021/05/22 06:44:13;;;;;;;35.42;5.18;;;11.90;99.90;;;;;;5081612;28;20465;-78
2021/05/22 06:46:48;;;;;;;32.75;5.07;;;11.90;99.90;;;;;;5087044;28;20436;-78
2021/05/22 06:49:16;;;;;;;29.77;4.60;;;11.90;99.90;;;;;;5082022;28;20456;-77
2021/05/22 06:51:43;;;;;;;29.08;4.95;;;11.90;99.90;;;;;;5084245;28;20452;-78
2021/05/22 06:54:11;;;;;;;33.35;5.25;;;11.90;99.90;;;;;;5083744;28;21004;-79
2021/05/22 06:56:37;;;;;;;28.50;5.00;;;12.00;99.90;;;;;;5086363;28;20426;-76
2021/05/22 06:59:04;;;;;;;30.50;5.30;;;12.00;99.90;;;;;;5069456;28;20426;-75
2021/05/22 07:01:31;;;;;;;28.70;5.20;;;12.10;99.90;;;;;;5083308;28;20427;-77
2021/05/22 07:03:59;;;;;;;28.05;4.97;;;12.20;99.90;;;;;;5085656;28;20873;-79
2021/05/22 07:06:26;;;;;;;25.98;4.88;;;12.20;99.90;;;;;;5084810;28;20421;-80
2021/05/22 07:08:56;;;;;;;23.00;4.70;;;12.20;99.90;;;;;;5085720;28;20425;-78
2021/05/22 07:11:24;;;;;;;20.48;4.35;;;12.20;99.90;;;;;;5081109;28;20444;-78
2021/05/22 07:13:51;;;;;;;21.20;3.95;;;12.20;99.90;;;;;;5082039;28;20534;-77
2021/05/22 07:16:18;;;;;;;21.45;4.30;;;12.30;99.90;;;;;;5066096;28;20421;-76
2021/05/22 07:18:44;;;;;;;22.75;4.38;;;12.40;99.90;;;;;;5067472;28;20438;-80
2021/05/22 07:21:11;;;;;;;22.73;4.60;;;12.50;99.90;;;;;;5084145;28;20432;-78
2021/05/22 07:23:37;;;;;;;21.50;4.32;;;12.50;99.90;;;;;;5084827;28;20418;-77
2021/05/22 07:26:04;;;;;;;27.13;4.70;;;12.60;99.90;;;;;;5086148;28;20512;-76
2021/05/22 07:28:32;;;;;;;23.92;4.70;;;12.60;99.90;;;;;;5083999;28;20505;-77
2021/05/22 07:31:00;;;;;;;16.20;4.30;;;12.60;99.90;;;;;;5084013;28;20421;-77
2021/05/22 07:33:27;;;;;;;25.08;4.35;;;12.60;99.90;;;;;;5082236;28;20421;-74
2021/05/22 07:35:54;;;;;;;22.20;4.82;;;12.60;99.90;;;;;;5062094;28;20487;-74
2021/05/22 07:38:21;;;;;;;23.88;4.55;;;12.50;99.90;;;;;;5081893;28;20816;-75
2021/05/22 07:40:47;;;;;;;19.95;5.10;;;12.50;99.90;;;;;;5078709;28;20442;-73
2021/05/22 07:43:14;;;;;;;26.20;4.82;;;12.60;99.90;;;;;;5066238;28;20418;-75
2021/05/22 07:45:42;;;;;;;22.90;4.77;;;12.60;99.90;;;;;;5082045;28;20898;-74
2021/05/22 07:48:08;;;;;;;21.20;4.30;;;12.60;99.90;;;;;;5085708;28;20508;-74
2021/05/22 07:50:36;;;;;;;19.58;3.80;;;12.60;99.90;;;;;;5099237;28;20512;-74
2021/05/22 07:53:03;;;;;;;19.85;4.05;;;12.60;99.90;;;;;;5082956;28;20781;-75
2021/05/22 07:55:29;;;;;;;19.65;4.13;;;12.60;99.90;;;;;;5067429;28;20418;-75
2021/05/22 07:57:56;;;;;;;18.92;4.00;;;12.60;99.90;;;;;;5085376;28;20917;-75
2021/05/22 08:00:24;;;;;;;18.33;3.60;;;12.70;99.90;;;;;;5084029;28;20443;-73
2021/05/22 08:02:51;;;;;;;17.48;3.80;;;12.70;99.90;;;;;;5084423;28;21088;-75
2021/05/22 08:05:17;;;;;;;16.35;4.07;;;12.70;99.90;;;;;;5084821;28;20918;-74
2021/05/22 08:07:44;;;;;;;16.17;3.70;;;12.80;99.90;;;;;;5081872;28;20506;-74
2021/05/22 08:10:14;;;;;;;18.70;4.13;;;12.80;99.90;;;;;;5083475;28;20425;-74
2021/05/22 08:12:40;;;;;;;19.73;4.20;;;12.80;99.90;;;;;;5085885;28;20428;-75
2021/05/22 08:15:08;;;;;;;15.90;3.53;;;12.80;99.90;;;;;;5083516;28;20429;-75
2021/05/22 08:17:34;;;;;;;16.43;3.80;;;12.80;99.90;;;;;;5082968;28;20920;-75
2021/05/22 08:20:02;;;;;;;13.47;3.10;;;12.80;99.90;;;;;;5079671;28;20474;-75
2021/05/22 08:22:28;;;;;;;7.80;2.10;;;12.80;99.90;;;;;;5083918;28;20773;-76
2021/05/22 08:24:55;;;;;;;9.75;2.30;;;12.70;99.90;;;;;;5094199;28;20597;-74
2021/05/22 08:27:22;;;;;;;9.18;2.60;;;12.70;99.90;;;;;;5068753;28;20813;-74
2021/05/22 08:29:48;;;;;;;10.02;2.80;;;12.60;99.90;;;;;;5067717;28;20422;-74
2021/05/22 08:32:14;;;;;;;11.75;3.42;;;12.60;99.90;;;;;;5083690;28;20432;-74
2021/05/22 08:34:41;;;;;;;10.77;2.75;;;12.50;99.90;;;;;;5084003;28;20496;-74
2021/05/22 08:37:11;;;;;;;11.85;2.90;;;12.50;99.90;;;;;;5062437;28;20470;-74
2021/05/22 08:39:43;;;;;;;11.48;3.17;;;12.50;99.90;;;;;;5080616;28;20849;-75
2021/05/22 08:42:11;;;;;;;15.95;3.60;;;12.50;99.90;;;;;;5083293;28;20440;-74
2021/05/22 08:44:39;;;;;;;15.00;3.30;;;12.50;99.90;;;;;;5064582;28;20463;-74
2021/05/22 08:47:06;;;;;;;11.32;2.80;;;12.50;99.90;;;;;;5080369;28;20462;-75
2021/05/22 08:49:41;;;;;;;11.23;2.72;;;12.50;99.90;;;;;;5082174;28;20426;-74
2021/05/22 08:52:09;;;;;;;10.57;2.50;;;12.50;99.90;;;;;;5099341;28;20449;-73
2021/05/22 08:54:36;;;;;;;8.55;2.35;;;12.50;99.90;;;;;;5098363;28;20492;-74
2021/05/22 08:57:03;;;;;;;10.10;2.70;;;12.40;99.90;;;;;;5081648;28;21231;-74
2021/05/22 08:59:30;;;;;;;14.30;3.20;;;12.40;99.90;;;;;;5083275;28;20428;-74
2021/05/22 09:01:57;;;;;;;11.88;2.97;;;12.40;99.90;;;;;;5084773;28;20429;-74
2021/05/22 09:04:23;;;;;;;8.75;2.78;;;12.50;99.90;;;;;;5088489;28;20431;-73
2021/05/22 09:07:01;;;;;;;10.73;2.58;;;12.50;99.90;;;;;;5084900;28;20429;-74
2021/05/22 09:09:39;;;;;;;9.98;2.72;;;12.60;99.90;;;;;;5086500;28;20435;-75
2021/05/22 09:12:06;;;;;;;15.20;3.25;;;12.60;99.90;;;;;;5086547;28;20422;-73
2021/05/22 09:14:45;;;;;;;15.47;3.00;;;12.60;99.90;;;;;;5067065;28;20419;-75
2021/05/22 09:17:13;;;;;;;13.93;2.72;;;12.60;99.90;;;;;;5086258;28;20966;-74
2021/05/22 09:19:40;;;;;;;12.77;2.50;;;12.60;99.90;;;;;;5085580;28;20431;-74
2021/05/22 09:22:19;;;;;;;11.70;2.45;;;12.60;99.90;;;;;;5088314;28;20439;-75
2021/05/22 09:24:57;;;;;;;10.70;2.17;;;12.50;99.90;;;;;;5086043;28;20525;-73
2021/05/22 09:27:23;;;;;;;11.30;2.83;;;12.50;99.90;;;;;;5086232;28;20525;-74
2021/05/22 09:29:50;;;;;;;12.82;2.30;;;12.50;99.90;;;;;;5084473;28;20441;-75
2021/05/22 09:32:17;;;;;;;11.55;2.40;;;12.60;99.90;;;;;;5086726;28;20426;-74
2021/05/22 09:34:43;;;;;;;8.20;2.00;;;12.60;99.90;;;;;;5088066;28;20425;-74
2021/05/22 09:37:12;;;;;;;9.38;1.90;;;12.60;99.90;;;;;;5102419;28;20452;-75
2021/05/22 09:39:46;;;;;;;8.75;2.00;;;12.60;99.90;;;;;;5069878;28;22198;-77
2021/05/22 09:42:13;;;;;;;10.73;2.10;;;12.60;99.90;;;;;;5088151;28;20440;-75
2021/05/22 09:44:40;;;;;;;7.55;2.13;;;12.60;99.90;;;;;;5085819;28;20443;-75
2021/05/22 09:47:07;;;;;;;12.07;2.60;;;12.70;99.90;;;;;;5067706;28;20426;-76
2021/05/22 09:49:35;;;;;;;10.45;2.53;;;12.70;99.90;;;;;;5087231;28;20958;-76
2021/05/22 09:52:04;;;;;;;11.18;2.63;;;12.80;99.90;;;;;;5088297;28;20477;-77
2021/05/22 09:54:41;;;;;;;11.63;2.70;;;12.80;99.90;;;;;;5084298;28;20590;-76
2021/05/22 09:57:08;;;;;;;15.13;2.90;;;12.90;99.90;;;;;;5064548;28;20427;-75
2021/05/22 09:59:35;;;;;;;14.50;3.03;;;12.90;99.90;;;;;;5082382;28;20429;-77
2021/05/22 10:02:02;;;;;;;17.90;3.42;;;13.00;99.90;;;;;;5086089;28;20432;-75
2021/05/22 10:04:28;;;;;;;12.43;2.90;;;13.00;99.90;;;;;;5065798;28;20457;-76
2021/05/22 10:06:57;;;;;;;13.65;2.90;;;13.10;99.90;;;;;;5078425;28;20466;-75
2021/05/22 10:09:25;;;;;;;10.50;2.70;;;13.10;99.90;;;;;;5084907;28;20423;-75
2021/05/22 10:12:01;;;;;;;14.65;2.90;;;13.10;99.90;;;;;;5079090;28;20422;-75
2021/05/22 10:14:31;;;;;;;15.77;3.53;;;13.10;99.90;;;;;;5086538;28;20462;-76
2021/05/22 10:16:58;;;;;;;14.38;3.10;;;13.10;99.90;;;;;;5065061;28;20517;-76
2021/05/22 10:19:26;;;;;;;16.67;3.55;;;13.10;99.90;;;;;;5086858;28;20413;-76
2021/05/22 10:21:53;;;;;;;16.53;3.10;;;13.10;99.90;;;;;;5083117;28;20444;-77
2021/05/22 10:24:19;;;;;;;13.95;3.30;;;13.10;99.90;;;;;;5082909;28;20791;-79
2021/05/22 10:26:46;;;;;;;15.43;3.50;;;13.20;99.90;;;;;;5067086;28;20422;-77
2021/05/22 10:29:12;;;;;;;15.17;3.60;;;13.20;99.90;;;;;;5085010;28;20429;-77
2021/05/22 10:31:40;;;;;;;16.65;3.15;;;13.30;99.90;;;;;;5082362;28;20426;-75
2021/05/22 10:34:12;;;;;;;16.08;3.35;;;13.30;99.90;;;;;;5068341;28;20421;-76
2021/05/22 10:36:47;;;;;;;16.38;3.40;;;13.40;99.90;;;;;;5083519;28;20778;-77
2021/05/22 10:39:39;;;;;;;17.83;3.83;;;13.40;99.90;;;;;;5083786;28;20426;-76
2021/05/22 10:42:08;;;;;;;19.27;3.65;;;13.50;99.90;;;;;;5099747;28;20426;-76
2021/05/22 10:44:38;;;;;;;16.02;3.22;;;13.50;99.90;;;;;;5084177;28;20417;-77
2021/05/22 10:47:08;;;;;;;16.02;3.28;;;13.50;99.90;;;;;;5086272;28;20959;-78
2021/05/22 10:49:52;;;;;;;16.15;3.33;;;13.50;99.90;;;;;;5085507;28;20418;-76
2021/05/22 10:52:21;;;;;;;19.10;3.53;;;13.40;99.90;;;;;;5084289;28;20456;-76
2021/05/22 10:55:01;;;;;;;19.95;3.10;;;13.50;99.90;;;;;;5099021;28;20418;-75
2021/05/22 10:57:28;;;;;;;20.60;3.42;;;13.50;99.90;;;;;;5082455;28;20437;-78
2021/05/22 11:00:18;;;;;;;19.97;3.60;;;13.50;99.90;;;;;;5084275;28;20549;-77
2021/05/22 11:02:47;;;;;;;18.55;3.20;;;13.50;99.90;;;;;;5084476;28;20422;-76
2021/05/22 11:05:42;;;;;;;16.65;3.03;;;13.60;99.90;;;;;;5083330;28;20508;-76
2021/05/22 11:08:31;;;;;;;17.25;3.20;;;13.60;99.90;;;;;;5067423;28;20437;-77
2021/05/22 11:11:01;;;;;;;17.60;2.90;;;13.60;99.90;;;;;;5099276;28;20480;-75
2021/05/22 11:13:39;;;;;;;19.65;3.47;;;13.70;99.90;;;;;;5080598;28;20456;-76
2021/05/22 11:16:07;;;;;;;17.35;3.55;;;13.60;99.90;;;;;;5067452;28;20418;-76
2021/05/22 11:19:00;;;;;;;17.73;3.70;;;13.60;99.90;;;;;;5066883;28;20453;-76
2021/05/22 11:21:27;;;;;;;15.77;3.28;;;13.60;99.90;;;;;;5082873;28;20426;-77
2021/05/22 11:24:08;;;;;;;13.25;2.85;;;13.50;99.90;;;;;;5085257;28;20440;-76
2021/05/22 11:27:01;;;;;;;17.83;3.28;;;13.50;99.90;;;;;;5082567;28;20556;-75
2021/05/22 11:29:51;;;;;;;17.38;3.38;;;13.40;99.90;;;;;;5080464;28;20430;-75
2021/05/22 11:32:43;;;;;;;19.80;3.30;;;13.50;99.90;;;;;;5082783;28;20429;-77
2021/05/22 11:35:31;;;;;;;17.90;3.30;;;13.50;99.90;;;;;;5065276;28;20521;-76
2021/05/22 11:38:19;;;;;;;19.35;3.63;;;13.50;99.90;;;;;;5099766;28;20909;-76
2021/05/22 11:40:49;;;;;;;16.33;3.65;;;13.60;99.90;;;;;;5078839;28;20556;-75
2021/05/22 11:43:25;;;;;;;18.88;3.22;;;13.60;99.90;;;;;;5082838;28;20519;-76
2021/05/22 11:45:53;;;;;;;20.70;3.20;;;13.70;99.90;;;;;;5082652;28;20504;-75
2021/05/22 11:48:24;;;;;;;20.80;3.20;;;13.80;99.90;;;;;;5080911;28;20426;-76
2021/05/22 11:50:51;;;;;;;19.35;3.35;;;14.00;99.90;;;;;;5099657;28;20413;-73
2021/05/22 11:53:19;;;;;;;19.50;3.38;;;14.10;99.90;;;;;;5082561;28;20424;-75
2021/05/22 11:55:54;;;;;;;13.15;2.88;;;14.30;99.90;;;;;;5066875;28;20773;-77
2021/05/22 11:58:20;;;;;;;19.40;3.28;;;14.30;99.90;;;;;;5085966;28;20413;-74
2021/05/22 12:00:47;;;;;;;15.13;2.85;;;14.40;99.90;;;;;;5082427;28;20418;-74
2021/05/22 12:03:22;;;;;;;13.80;3.20;;;14.40;99.90;;;;;;5081494;28;20421;-74
2021/05/22 12:05:49;;;;;;;16.90;3.10;;;14.50;99.90;;;;;;5083191;28;20437;-74
2021/05/22 12:08:16;;;;;;;16.98;3.33;;;14.50;99.60;;;;;;5085357;28;20436;-74
2021/05/22 12:10:44;;;;;;;20.88;3.60;;;14.40;99.50;;;;;;5080894;28;20429;-75
2021/05/22 12:13:10;;;;;;;19.88;3.65;;;14.30;99.40;;;;;;5099001;28;20422;-74
2021/05/22 12:15:38;;;;;;;21.08;3.47;;;14.30;99.60;;;;;;5084438;28;20433;-75
2021/05/22 12:18:06;;;;;;;20.95;3.95;;;14.20;98.90;;;;;;5083965;28;20418;-74
2021/05/22 12:20:45;;;;;;;17.15;3.40;;;14.10;99.30;;;;;;5084166;28;20422;-76
2021/05/22 12:23:26;;;;;;;22.38;3.58;;;14.10;99.60;;;;;;5081492;28;20427;-75
2021/05/22 12:25:54;;;;;;;21.45;3.70;;;14.10;99.90;;;;;;5082579;28;20813;-76
2021/05/22 12:28:22;;;;;;;17.98;3.53;;;14.20;98.90;;;;;;5078774;28;20428;-75
2021/05/22 12:30:51;;;;;;;14.55;3.80;;;14.30;98.50;;;;;;5076724;28;20419;-73
2021/05/22 12:33:17;;;;;;;16.93;3.50;;;14.40;98.80;;;;;;5080168;28;20426;-75
2021/05/22 12:35:46;;;;;;;17.67;2.87;;;14.60;98.00;;;;;;5081315;28;20425;-75
2021/05/22 12:38:12;;;;;;;14.90;2.80;;;14.70;97.30;;;;;;5086678;28;20901;-75
2021/05/22 12:40:47;;;;;;;17.67;3.10;;;14.70;96.40;;;;;;5066247;28;20508;-76
2021/05/22 12:43:15;;;;;;;16.43;2.83;;;14.60;96.30;;;;;;5083744;28;20426;-75
2021/05/22 12:45:43;;;;;;;15.53;2.80;;;14.60;95.90;;;;;;5099354;28;20429;-75